createdAt,value
2018-09-09T00:00:30.974Z,1019.77
2018-09-09T00:01:41.087Z,1019.78
2018-09-09T00:02:50.947Z,1019.8
2018-09-09T00:04:00.509Z,1019.83
2018-09-09T00:05:10.399Z,1019.76
2018-09-09T00:06:19.975Z,1019.76
2018-09-09T00:07:29.276Z,1019.74
2018-09-09T00:08:39.120Z,1019.73
2018-09-09T00:09:48.696Z,1019.76
2018-09-09T00:10:57.732Z,1019.75
2018-09-09T00:12:07.306Z,1019.78
2018-09-09T00:13:16.878Z,1019.72
2018-09-09T00:14:26.719Z,1019.76
2018-09-09T00:15:36.345Z,1019.75
2018-09-09T00:16:46.189Z,1019.73
2018-09-09T00:17:56.033Z,1019.74
2018-09-09T00:19:05.602Z,1019.77
2018-09-09T00:20:15.165Z,1019.76
2018-09-09T00:21:24.760Z,1019.75
2018-09-09T00:22:34.602Z,1019.77
2018-09-09T00:23:43.633Z,1019.78
2018-09-09T00:24:53.204Z,1019.77
2018-09-09T00:26:02.772Z,1019.74
2018-09-09T00:27:12.611Z,1019.77
2018-09-09T00:28:22.184Z,1019.76
2018-09-09T00:29:32.024Z,1019.75
2018-09-09T00:30:41.906Z,1019.72
2018-09-09T00:31:51.479Z,1019.72
2018-09-09T00:33:01.586Z,1019.69
2018-09-09T00:34:11.753Z,1019.73
2018-09-09T00:35:21.323Z,1019.73
2018-09-09T00:36:31.222Z,1019.7
2018-09-09T00:37:41.066Z,1019.69
2018-09-09T00:38:50.910Z,1019.71
2018-09-09T00:40:00.807Z,1019.71
2018-09-09T00:41:10.387Z,1019.67
2018-09-09T00:42:20.240Z,1019.7
2018-09-09T00:43:30.379Z,1019.71
2018-09-09T00:44:40.537Z,1019.69
2018-09-09T00:45:49.883Z,1019.68
2018-09-09T00:46:59.724Z,1019.72
2018-09-09T00:48:09.029Z,1019.73
2018-09-09T00:49:18.875Z,1019.7
2018-09-09T00:50:28.677Z,1019.72
2018-09-09T00:51:38.296Z,1019.7
2018-09-09T00:52:48.141Z,1019.7
2018-09-09T00:53:57.989Z,1019.72
2018-09-09T00:55:08.106Z,1019.72
2018-09-09T00:56:18.223Z,1019.73
2018-09-09T00:57:28.335Z,1019.7
2018-09-09T00:58:38.178Z,1019.68
2018-09-09T00:59:48.045Z,1019.72
2018-09-09T01:00:57.900Z,1019.73
2018-09-09T01:02:07.475Z,1019.73
2018-09-09T01:03:16.782Z,1019.73
2018-09-09T01:04:26.891Z,1019.71
2018-09-09T01:05:36.205Z,1019.76
2018-09-09T01:06:45.776Z,1019.72
2018-09-09T01:07:55.345Z,1019.72
2018-09-09T01:09:05.244Z,1019.75
2018-09-09T01:10:14.813Z,1019.72
2018-09-09T01:11:24.656Z,1019.74
2018-09-09T01:12:34.511Z,1019.72
2018-09-09T01:13:44.078Z,1019.73
2018-09-09T01:14:53.656Z,1019.72
2018-09-09T01:16:03.492Z,1019.66
2018-09-09T01:17:13.335Z,1019.65
2018-09-09T01:18:23.451Z,1019.72
2018-09-09T01:19:33.293Z,1019.68
2018-09-09T01:20:43.184Z,1019.68
2018-09-09T01:21:53.294Z,1019.66
2018-09-09T01:23:02.869Z,1019.63
2018-09-09T01:24:12.707Z,1019.64
2018-09-09T01:25:22.017Z,1019.65
2018-09-09T01:26:31.561Z,1019.64
2018-09-09T01:27:41.127Z,1019.64
2018-09-09T01:28:50.693Z,1019.64
2018-09-09T01:30:00.563Z,1019.59
2018-09-09T01:31:10.132Z,1019.62
2018-09-09T01:32:19.708Z,1019.61
2018-09-09T01:33:29.548Z,1019.65
2018-09-09T01:34:39.654Z,1019.62
2018-09-09T01:35:48.956Z,1019.64
2018-09-09T01:36:58.803Z,1019.66
2018-09-09T01:38:08.380Z,1019.63
2018-09-09T01:39:17.678Z,1019.69
2018-09-09T01:40:27.522Z,1019.71
2018-09-09T01:41:37.378Z,1019.68
2018-09-09T01:42:46.685Z,1019.69
2018-09-09T01:43:56.267Z,1019.71
2018-09-09T01:45:06.386Z,1019.7
2018-09-09T01:46:15.969Z,1019.71
2018-09-09T01:47:26.087Z,1019.71
2018-09-09T01:48:35.656Z,1019.67
2018-09-09T01:49:44.962Z,1019.71
2018-09-09T01:50:54.561Z,1019.69
2018-09-09T01:52:03.863Z,1019.7
2018-09-09T01:53:13.165Z,1019.67
2018-09-09T01:54:23.002Z,1019.7
2018-09-09T01:55:32.849Z,1019.65
2018-09-09T01:56:42.693Z,1019.68
2018-09-09T01:57:52.005Z,1019.69
2018-09-09T01:59:01.582Z,1019.68
2018-09-09T02:00:11.418Z,1019.76
2018-09-09T02:01:21.039Z,1019.71
2018-09-09T02:02:30.895Z,1019.73
2018-09-09T02:03:40.765Z,1019.72
2018-09-09T02:04:50.606Z,1019.7
2018-09-09T02:06:00.751Z,1019.73
2018-09-09T02:07:10.589Z,1019.71
2018-09-09T02:08:20.744Z,1019.79
2018-09-09T02:09:30.051Z,1019.8
2018-09-09T02:10:39.411Z,1019.79
2018-09-09T02:11:49.247Z,1019.8
2018-09-09T02:12:58.814Z,1019.85
2018-09-09T02:14:08.115Z,1019.84
2018-09-09T02:15:18.226Z,1019.87
2018-09-09T02:16:27.808Z,1019.84
2018-09-09T02:17:37.114Z,1019.84
2018-09-09T02:18:46.950Z,1019.84
2018-09-09T02:19:56.762Z,1019.83
2018-09-09T02:21:06.605Z,1019.83
2018-09-09T02:22:16.716Z,1019.78
2018-09-09T02:23:26.551Z,1019.81
2018-09-09T02:24:35.857Z,1019.84
2018-09-09T02:25:45.756Z,1019.81
2018-09-09T02:26:55.610Z,1019.8
2018-09-09T02:28:05.795Z,1019.79
2018-09-09T02:29:15.645Z,1019.78
2018-09-09T02:30:25.218Z,1019.78
2018-09-09T02:31:34.789Z,1019.72
2018-09-09T02:32:44.367Z,1019.71
2018-09-09T02:33:53.676Z,1019.79
2018-09-09T02:35:03.786Z,1019.71
2018-09-09T02:36:13.625Z,1019.77
2018-09-09T02:37:23.487Z,1019.74
2018-09-09T02:38:33.607Z,1019.74
2018-09-09T02:39:42.912Z,1019.71
2018-09-09T02:40:52.485Z,1019.7
2018-09-09T02:42:02.087Z,1019.71
2018-09-09T02:43:11.657Z,1019.72
2018-09-09T02:44:21.222Z,1019.68
2018-09-09T02:45:30.797Z,1019.67
2018-09-09T02:46:40.361Z,1019.66
2018-09-09T02:47:50.528Z,1019.65
2018-09-09T02:49:00.373Z,1019.56
2018-09-09T02:50:09.949Z,1019.63
2018-09-09T02:51:18.988Z,1019.65
2018-09-09T02:52:28.837Z,1019.64
2018-09-09T02:53:38.417Z,1019.68
2018-09-09T02:54:48.283Z,1019.65
2018-09-09T02:55:58.182Z,1019.65
2018-09-09T02:57:08.028Z,1019.63
2018-09-09T02:58:17.867Z,1019.6
2018-09-09T02:59:27.752Z,1019.61
2018-09-09T03:00:37.868Z,1019.59
2018-09-09T03:01:47.724Z,1019.59
2018-09-09T03:02:57.844Z,1019.64
2018-09-09T03:04:07.955Z,1019.6
2018-09-09T03:05:17.796Z,1019.56
2018-09-09T03:06:27.637Z,1019.54
2018-09-09T03:07:37.481Z,1019.57
2018-09-09T03:08:47.317Z,1019.57
2018-09-09T03:09:57.454Z,1019.57
2018-09-09T03:11:07.038Z,1019.55
2018-09-09T03:12:17.146Z,1019.55
2018-09-09T03:13:26.720Z,1019.51
2018-09-09T03:14:36.292Z,1019.51
2018-09-09T03:15:46.403Z,1019.5
2018-09-09T03:16:56.517Z,1019.48
2018-09-09T03:18:06.137Z,1019.52
2018-09-09T03:19:15.715Z,1019.5
2018-09-09T03:20:25.554Z,1019.57
2018-09-09T03:21:35.684Z,1019.53
2018-09-09T03:22:45.546Z,1019.52
2018-09-09T03:23:55.391Z,1019.54
2018-09-09T03:25:05.242Z,1019.54
2018-09-09T03:26:14.819Z,1019.51
2018-09-09T03:27:24.398Z,1019.53
2018-09-09T03:28:34.072Z,1019.52
2018-09-09T03:29:44.503Z,1019.45
2018-09-09T03:30:54.344Z,1019.49
2018-09-09T03:32:04.481Z,1019.46
2018-09-09T03:33:14.609Z,1019.49
2018-09-09T03:34:24.956Z,1019.5
2018-09-09T03:35:34.822Z,1019.51
2018-09-09T03:36:44.399Z,1019.52
2018-09-09T03:37:54.237Z,1019.53
2018-09-09T03:39:04.082Z,1019.53
2018-09-09T03:40:13.930Z,1019.55
2018-09-09T03:41:23.775Z,1019.53
2018-09-09T03:42:33.349Z,1019.53
2018-09-09T03:43:43.467Z,1019.49
2018-09-09T03:44:53.342Z,1019.5
2018-09-09T03:46:02.915Z,1019.53
2018-09-09T03:47:12.485Z,1019.5
2018-09-09T03:48:21.785Z,1019.53
2018-09-09T03:49:31.894Z,1019.5
2018-09-09T03:50:41.466Z,1019.5
2018-09-09T03:51:51.309Z,1019.53
2018-09-09T03:53:00.631Z,1019.53
2018-09-09T03:54:09.931Z,1019.54
2018-09-09T03:55:19.780Z,1019.58
2018-09-09T03:56:29.094Z,1019.55
2018-09-09T03:57:39.068Z,1019.56
2018-09-09T03:58:49.127Z,1019.51
2018-09-09T03:59:58.697Z,1019.52
2018-09-09T04:01:08.543Z,1019.53
2018-09-09T04:02:18.115Z,1019.55
2018-09-09T04:03:28.216Z,1019.55
2018-09-09T04:04:38.330Z,1019.55
2018-09-09T04:05:47.906Z,1019.6
2018-09-09T04:06:57.207Z,1019.58
2018-09-09T04:08:07.051Z,1019.59
2018-09-09T04:09:16.351Z,1019.63
2018-09-09T04:10:25.919Z,1019.64
2018-09-09T04:11:35.835Z,1019.61
2018-09-09T04:12:45.675Z,1019.62
2018-09-09T04:13:55.531Z,1019.66
2018-09-09T04:15:05.411Z,1019.66
2018-09-09T04:16:15.525Z,1019.64
2018-09-09T04:17:25.099Z,1019.66
2018-09-09T04:18:34.956Z,1019.69
2018-09-09T04:19:44.791Z,1019.69
2018-09-09T04:20:54.409Z,1019.73
2018-09-09T04:22:04.519Z,1019.72
2018-09-09T04:23:13.814Z,1019.72
2018-09-09T04:24:23.116Z,1019.75
2018-09-09T04:25:32.680Z,1019.73
2018-09-09T04:26:42.817Z,1019.73
2018-09-09T04:27:52.931Z,1019.76
2018-09-09T04:29:03.061Z,1019.68
2018-09-09T04:30:12.910Z,1019.67
2018-09-09T04:31:22.746Z,1019.68
2018-09-09T04:32:32.631Z,1019.72
2018-09-09T04:33:42.197Z,1019.71
2018-09-09T04:34:52.306Z,1019.73
2018-09-09T04:36:01.874Z,1019.74
2018-09-09T04:37:11.460Z,1019.73
2018-09-09T04:38:21.316Z,1019.73
2018-09-09T04:39:30.613Z,1019.77
2018-09-09T04:40:40.462Z,1019.77
2018-09-09T04:41:50.575Z,1019.72
2018-09-09T04:43:00.417Z,1019.75
2018-09-09T04:44:09.178Z,1019.78
2018-09-09T04:45:18.748Z,1019.75
2018-09-09T04:46:28.708Z,1019.75
2018-09-09T04:47:38.043Z,1019.79
2018-09-09T04:48:48.168Z,1019.78
2018-09-09T04:49:58.006Z,1019.79
2018-09-09T04:51:08.122Z,1019.81
2018-09-09T04:52:17.704Z,1019.77
2018-09-09T04:53:27.825Z,1019.77
2018-09-09T04:54:37.404Z,1019.76
2018-09-09T04:55:47.518Z,1019.77
2018-09-09T04:56:57.364Z,1019.78
2018-09-09T04:58:07.207Z,1019.77
2018-09-09T04:59:17.053Z,1019.76
2018-09-09T05:00:26.678Z,1019.8
2018-09-09T05:01:36.780Z,1019.76
2018-09-09T05:02:46.895Z,1019.77
2018-09-09T05:03:57.023Z,1019.77
2018-09-09T05:05:06.868Z,1019.77
2018-09-09T05:06:16.712Z,1019.8
2018-09-09T05:07:26.287Z,1019.78
2018-09-09T05:08:36.142Z,1019.79
2018-09-09T05:09:46.253Z,1019.78
2018-09-09T05:10:55.553Z,1019.81
2018-09-09T05:12:05.402Z,1019.81
2018-09-09T05:13:15.247Z,1019.81
2018-09-09T05:14:25.088Z,1019.8
2018-09-09T05:15:34.656Z,1019.81
2018-09-09T05:16:44.773Z,1019.86
2018-09-09T05:17:54.075Z,1019.88
2018-09-09T05:19:03.922Z,1019.89
2018-09-09T05:20:13.766Z,1019.9
2018-09-09T05:21:23.602Z,1019.9
2018-09-09T05:22:33.714Z,1019.92
2018-09-09T05:23:43.547Z,1019.98
2018-09-09T05:24:53.716Z,1019.97
2018-09-09T05:26:03.567Z,1020
2018-09-09T05:27:13.679Z,1020.03
2018-09-09T05:28:23.792Z,1020
2018-09-09T05:29:33.357Z,1020.05
2018-09-09T05:30:43.201Z,1020.05
2018-09-09T05:31:53.054Z,1020.02
2018-09-09T05:33:03.185Z,1020.04
2018-09-09T05:34:13.298Z,1020.06
2018-09-09T05:35:23.141Z,1020.07
2018-09-09T05:36:32.983Z,1020.08
2018-09-09T05:37:42.555Z,1020.09
2018-09-09T05:38:52.396Z,1020.09
2018-09-09T05:40:02.505Z,1020.11
2018-09-09T05:41:12.076Z,1020.04
2018-09-09T05:42:21.921Z,1020.08
2018-09-09T05:43:32.099Z,1020.1
2018-09-09T05:44:42.286Z,1020.1
2018-09-09T05:45:52.155Z,1020.1
2018-09-09T05:47:02.005Z,1020.1
2018-09-09T05:48:11.580Z,1020.13
2018-09-09T05:49:21.430Z,1020.13
2018-09-09T05:50:31.000Z,1020.13
2018-09-09T05:51:40.816Z,1020.11
2018-09-09T05:52:50.657Z,1020.09
2018-09-09T05:54:00.546Z,1020.11
2018-09-09T05:55:10.746Z,1020.07
2018-09-09T05:56:20.626Z,1020.11
2018-09-09T05:57:30.468Z,1020.12
2018-09-09T05:58:39.545Z,1020.12
2018-09-09T05:59:49.394Z,1020.15
2018-09-09T06:00:59.278Z,1020.14
2018-09-09T06:02:09.463Z,1020.14
2018-09-09T06:03:19.579Z,1020.15
2018-09-09T06:04:28.876Z,1020.16
2018-09-09T06:05:38.720Z,1020.19
2018-09-09T06:06:48.559Z,1020.21
2018-09-09T06:07:58.149Z,1020.19
2018-09-09T06:09:08.023Z,1020.18
2018-09-09T06:10:17.869Z,1020.18
2018-09-09T06:11:27.722Z,1020.16
2018-09-09T06:12:37.558Z,1020.14
2018-09-09T06:13:47.132Z,1020.15
2018-09-09T06:14:56.975Z,1020.14
2018-09-09T06:16:07.091Z,1020.12
2018-09-09T06:17:16.659Z,1020.21
2018-09-09T06:18:26.165Z,1020.19
2018-09-09T06:19:36.291Z,1020.19
2018-09-09T06:20:45.865Z,1020.25
2018-09-09T06:21:55.985Z,1020.25
2018-09-09T06:23:05.292Z,1020.24
2018-09-09T06:24:15.332Z,1020.26
2018-09-09T06:25:25.442Z,1020.25
2018-09-09T06:26:35.018Z,1020.26
2018-09-09T06:27:44.584Z,1020.26
2018-09-09T06:28:53.935Z,1020.28
2018-09-09T06:30:03.514Z,1020.27
2018-09-09T06:31:13.352Z,1020.27
2018-09-09T06:32:23.457Z,1020.3
2018-09-09T06:33:33.628Z,1020.29
2018-09-09T06:34:44.132Z,1020.29
2018-09-09T06:35:54.249Z,1020.25
2018-09-09T06:37:03.551Z,1020.29
2018-09-09T06:38:12.881Z,1020.25
2018-09-09T06:39:22.771Z,1020.31
2018-09-09T06:40:32.077Z,1020.28
2018-09-09T06:41:41.919Z,1020.24
2018-09-09T06:42:52.043Z,1020.18
2018-09-09T06:44:01.620Z,1020.23
2018-09-09T06:45:11.466Z,1020.25
2018-09-09T06:46:21.414Z,1020.21
2018-09-09T06:47:31.820Z,1020.24
2018-09-09T06:48:41.946Z,1020.22
2018-09-09T06:49:51.246Z,1020.25
2018-09-09T06:51:00.548Z,1020.22
2018-09-09T06:52:10.255Z,1020.24
2018-09-09T06:53:20.374Z,1020.22
2018-09-09T06:54:29.945Z,1020.25
2018-09-09T06:55:40.055Z,1020.28
2018-09-09T06:56:49.903Z,1020.29
2018-09-09T06:57:58.980Z,1020.32
2018-09-09T06:59:08.826Z,1020.32
2018-09-09T07:00:18.406Z,1020.34
2018-09-09T07:01:28.254Z,1020.33
2018-09-09T07:02:37.557Z,1020.35
2018-09-09T07:03:47.125Z,1020.35
2018-09-09T07:04:57.026Z,1020.37
2018-09-09T07:06:07.166Z,1020.33
2018-09-09T07:07:17.006Z,1020.38
2018-09-09T07:08:26.308Z,1020.39
2018-09-09T07:09:36.148Z,1020.4
2018-09-09T07:10:46.035Z,1020.37
2018-09-09T07:11:56.212Z,1020.36
2018-09-09T07:13:07.231Z,1020.36
2018-09-09T07:14:16.589Z,1020.35
2018-09-09T07:15:26.217Z,1020.38
2018-09-09T07:16:35.796Z,1020.44
2018-09-09T07:17:45.905Z,1020.4
2018-09-09T07:18:56.020Z,1020.41
2018-09-09T07:20:06.077Z,1020.4
2018-09-09T07:21:15.914Z,1020.44
2018-09-09T07:22:25.493Z,1020.45
2018-09-09T07:23:35.502Z,1020.47
2018-09-09T07:24:45.077Z,1020.48
2018-09-09T07:25:54.655Z,1020.52
2018-09-09T07:27:04.229Z,1020.48
2018-09-09T07:28:14.077Z,1020.54
2018-09-09T07:29:24.279Z,1020.51
2018-09-09T07:30:34.121Z,1020.46
2018-09-09T07:31:43.426Z,1020.51
2018-09-09T07:32:53.272Z,1020.49
2018-09-09T07:34:02.844Z,1020.46
2018-09-09T07:35:12.863Z,1020.5
2018-09-09T07:36:22.712Z,1020.5
2018-09-09T07:37:32.281Z,1020.45
2018-09-09T07:38:41.668Z,1020.42
2018-09-09T07:39:51.538Z,1020.53
2018-09-09T07:41:01.379Z,1020.44
2018-09-09T07:42:10.979Z,1020.48
2018-09-09T07:43:20.813Z,1020.49
2018-09-09T07:44:30.646Z,1020.47
2018-09-09T07:45:40.212Z,1020.51
2018-09-09T07:46:49.789Z,1020.54
2018-09-09T07:47:59.914Z,1020.54
2018-09-09T07:49:09.770Z,1020.49
2018-09-09T07:50:19.343Z,1020.52
2018-09-09T07:51:29.208Z,1020.53
2018-09-09T07:52:38.782Z,1020.57
2018-09-09T07:53:48.413Z,1020.55
2018-09-09T07:54:58.310Z,1020.56
2018-09-09T07:56:07.896Z,1020.55
2018-09-09T07:57:17.480Z,1020.58
2018-09-09T07:58:27.354Z,1020.56
2018-09-09T07:59:37.189Z,1020.58
2018-09-09T08:00:46.763Z,1020.64
2018-09-09T08:01:56.607Z,1020.62
2018-09-09T08:03:06.451Z,1020.61
2018-09-09T08:04:16.292Z,1020.6
2018-09-09T08:05:26.405Z,1020.58
2018-09-09T08:06:36.244Z,1020.58
2018-09-09T08:07:46.086Z,1020.61
2018-09-09T08:08:55.656Z,1020.62
2018-09-09T08:10:05.502Z,1020.63
2018-09-09T08:11:15.619Z,1020.6
2018-09-09T08:12:25.743Z,1020.63
2018-09-09T08:13:35.595Z,1020.62
2018-09-09T08:14:45.446Z,1020.66
2018-09-09T08:15:55.287Z,1020.61
2018-09-09T08:17:04.867Z,1020.68
2018-09-09T08:18:14.203Z,1020.68
2018-09-09T08:19:24.291Z,1020.67
2018-09-09T08:20:33.601Z,1020.72
2018-09-09T08:21:42.900Z,1020.68
2018-09-09T08:22:52.479Z,1020.69
2018-09-09T08:24:01.784Z,1020.67
2018-09-09T08:25:11.634Z,1020.7
2018-09-09T08:26:21.481Z,1020.69
2018-09-09T08:27:31.063Z,1020.71
2018-09-09T08:28:40.934Z,1020.72
2018-09-09T08:29:50.782Z,1020.69
2018-09-09T08:31:00.367Z,1020.74
2018-09-09T08:32:10.204Z,1020.7
2018-09-09T08:33:20.319Z,1020.78
2018-09-09T08:34:30.426Z,1020.75
2018-09-09T08:35:40.321Z,1020.75
2018-09-09T08:36:49.889Z,1020.75
2018-09-09T08:37:59.999Z,1020.67
2018-09-09T08:39:09.306Z,1020.76
2018-09-09T08:40:18.616Z,1020.75
2018-09-09T08:41:28.463Z,1020.7
2018-09-09T08:42:38.305Z,1020.71
2018-09-09T08:43:48.157Z,1020.72
2018-09-09T08:44:58.242Z,1020.68
2018-09-09T08:46:08.421Z,1020.7
2018-09-09T08:47:18.269Z,1020.72
2018-09-09T08:48:28.112Z,1020.65
2018-09-09T08:49:37.957Z,1020.68
2018-09-09T08:50:47.527Z,1020.63
2018-09-09T08:51:57.482Z,1020.65
2018-09-09T08:53:08.387Z,1020.65
2018-09-09T08:54:17.688Z,1020.68
2018-09-09T08:55:27.555Z,1020.68
2018-09-09T08:56:37.725Z,1020.72
2018-09-09T08:57:47.566Z,1020.71
2018-09-09T08:58:57.407Z,1020.63
2018-09-09T09:00:07.253Z,1020.64
2018-09-09T09:01:16.293Z,1020.62
2018-09-09T09:02:25.589Z,1020.66
2018-09-09T09:03:34.943Z,1020.63
2018-09-09T09:04:44.251Z,1020.64
2018-09-09T09:05:53.824Z,1020.59
2018-09-09T09:07:03.601Z,1020.57
2018-09-09T09:08:13.535Z,1020.5
2018-09-09T09:09:23.399Z,1020.48
2018-09-09T09:10:33.279Z,1020.54
2018-09-09T09:11:43.127Z,1020.52
2018-09-09T09:12:52.702Z,1020.48
2018-09-09T09:14:02.271Z,1020.44
2018-09-09T09:15:11.623Z,1020.45
2018-09-09T09:16:21.195Z,1020.47
2018-09-09T09:17:30.771Z,1020.52
2018-09-09T09:18:40.687Z,1020.48
2018-09-09T09:19:50.603Z,1020.5
2018-09-09T09:21:00.456Z,1020.42
2018-09-09T09:22:10.315Z,1020.44
2018-09-09T09:23:20.462Z,1020.42
2018-09-09T09:24:30.661Z,1020.49
2018-09-09T09:25:40.773Z,1020.47
2018-09-09T09:26:50.348Z,1020.52
2018-09-09T09:27:59.654Z,1020.52
2018-09-09T09:29:09.496Z,1020.55
2018-09-09T09:30:19.608Z,1020.57
2018-09-09T09:31:29.190Z,1020.58
2018-09-09T09:32:39.282Z,1020.64
2018-09-09T09:33:49.127Z,1020.65
2018-09-09T09:34:59.241Z,1020.7
2018-09-09T09:36:09.590Z,1020.68
2018-09-09T09:37:19.445Z,1020.7
2018-09-09T09:38:29.031Z,1020.69
2018-09-09T09:39:38.890Z,1020.75
2018-09-09T09:40:48.202Z,1020.69
2018-09-09T09:41:58.061Z,1020.69
2018-09-09T09:43:07.914Z,1020.79
2018-09-09T09:44:17.775Z,1020.68
2018-09-09T09:45:27.883Z,1020.63
2018-09-09T09:46:38.007Z,1020.64
2018-09-09T09:47:47.577Z,1020.65
2018-09-09T09:48:57.699Z,1020.69
2018-09-09T09:50:07.276Z,1020.65
2018-09-09T09:51:17.426Z,1020.69
2018-09-09T09:52:26.998Z,1020.62
2018-09-09T09:53:37.224Z,1020.66
2018-09-09T09:54:47.498Z,1020.65
2018-09-09T09:55:56.529Z,1020.63
2018-09-09T09:57:06.375Z,1020.6
2018-09-09T09:58:16.488Z,1020.57
2018-09-09T09:59:26.062Z,1020.58
2018-09-09T10:00:35.637Z,1020.58
2018-09-09T10:01:45.486Z,1020.57
2018-09-09T10:02:55.324Z,1020.6
2018-09-09T10:04:04.636Z,1020.62
2018-09-09T10:05:13.946Z,1020.59
2018-09-09T10:06:23.727Z,1020.59
2018-09-09T10:07:33.305Z,1020.56
2018-09-09T10:08:43.177Z,1020.57
2018-09-09T10:09:53.351Z,1020.63
2018-09-09T10:11:03.200Z,1020.64
2018-09-09T10:12:13.317Z,1020.65
2018-09-09T10:13:23.162Z,1020.67
2018-09-09T10:14:32.739Z,1020.65
2018-09-09T10:15:42.871Z,1020.67
2018-09-09T10:16:52.419Z,1020.69
2018-09-09T10:18:02.478Z,1020.65
2018-09-09T10:19:12.053Z,1020.68
2018-09-09T10:20:21.625Z,1020.67
2018-09-09T10:21:31.205Z,1020.68
2018-09-09T10:22:41.059Z,1020.61
2018-09-09T10:23:50.656Z,1020.67
2018-09-09T10:25:00.888Z,1020.66
2018-09-09T10:26:10.744Z,1020.63
2018-09-09T10:27:20.560Z,1020.63
2018-09-09T10:28:30.408Z,1020.65
2018-09-09T10:29:39.983Z,1020.57
2018-09-09T10:30:49.334Z,1020.53
2018-09-09T10:31:59.178Z,1020.54
2018-09-09T10:33:09.022Z,1020.51
2018-09-09T10:34:18.325Z,1020.54
2018-09-09T10:35:28.167Z,1020.54
2018-09-09T10:36:37.470Z,1020.58
2018-09-09T10:37:47.040Z,1020.61
2018-09-09T10:38:56.348Z,1020.6
2018-09-09T10:40:06.202Z,1020.53
2018-09-09T10:41:15.827Z,1020.57
2018-09-09T10:42:25.457Z,1020.58
2018-09-09T10:43:35.304Z,1020.57
2018-09-09T10:44:45.148Z,1020.62
2018-09-09T10:45:55.228Z,1020.62
2018-09-09T10:47:05.112Z,1020.54
2018-09-09T10:48:15.438Z,1020.55
2018-09-09T10:49:25.552Z,1020.49
2018-09-09T10:50:35.670Z,1020.5
2018-09-09T10:51:45.790Z,1020.53
2018-09-09T10:52:54.823Z,1020.55
2018-09-09T10:54:05.077Z,1020.53
2018-09-09T10:55:15.189Z,1020.57
2018-09-09T10:56:24.768Z,1020.55
2018-09-09T10:57:34.616Z,1020.59
2018-09-09T10:58:44.526Z,1020.6
2018-09-09T10:59:54.720Z,1020.62
2018-09-09T11:01:04.027Z,1020.58
2018-09-09T11:02:14.113Z,1020.56
2018-09-09T11:03:24.224Z,1020.57
2018-09-09T11:04:33.529Z,1020.52
2018-09-09T11:05:42.832Z,1020.58
2018-09-09T11:06:51.937Z,1020.54
2018-09-09T11:08:02.183Z,1020.57
2018-09-09T11:09:11.213Z,1020.61
2018-09-09T11:10:20.805Z,1020.6
2018-09-09T11:11:30.924Z,1020.61
2018-09-09T11:12:40.605Z,1020.65
2018-09-09T11:13:50.733Z,1020.66
2018-09-09T11:15:00.041Z,1020.67
2018-09-09T11:16:09.883Z,1020.62
2018-09-09T11:17:19.722Z,1020.62
2018-09-09T11:18:29.565Z,1020.66
2018-09-09T11:19:39.142Z,1020.66
2018-09-09T11:20:48.990Z,1020.66
2018-09-09T11:21:58.840Z,1020.71
2018-09-09T11:23:08.459Z,1020.69
2018-09-09T11:24:18.326Z,1020.68
2018-09-09T11:25:27.790Z,1020.65
2018-09-09T11:26:37.380Z,1020.67
2018-09-09T11:27:47.490Z,1020.66
2018-09-09T11:28:57.112Z,1020.66
2018-09-09T11:30:06.690Z,1020.68
2018-09-09T11:31:16.808Z,1020.75
2018-09-09T11:32:26.697Z,1020.7
2018-09-09T11:33:36.538Z,1020.66
2018-09-09T11:34:46.379Z,1020.67
2018-09-09T11:35:56.224Z,1020.61
2018-09-09T11:37:06.097Z,1020.61
2018-09-09T11:38:15.670Z,1020.6
2018-09-09T11:39:25.241Z,1020.61
2018-09-09T11:40:34.557Z,1020.63
2018-09-09T11:41:44.415Z,1020.63
2018-09-09T11:42:53.730Z,1020.6
2018-09-09T11:44:03.585Z,1020.6
2018-09-09T11:45:13.697Z,1020.56
2018-09-09T11:46:23.554Z,1020.59
2018-09-09T11:47:33.398Z,1020.63
2018-09-09T11:48:43.252Z,1020.62
2018-09-09T11:49:53.368Z,1020.66
2018-09-09T11:51:02.692Z,1020.69
2018-09-09T11:52:12.271Z,1020.64
2018-09-09T11:53:22.116Z,1020.64
2018-09-09T11:54:31.688Z,1020.65
2018-09-09T11:55:41.807Z,1020.63
2018-09-09T11:56:51.381Z,1020.64
2018-09-09T11:58:01.242Z,1020.67
2018-09-09T11:59:10.553Z,1020.72
2018-09-09T12:00:19.856Z,1020.76
2018-09-09T12:01:29.733Z,1020.76
2018-09-09T12:02:39.037Z,1020.74
2018-09-09T12:03:48.884Z,1020.71
2018-09-09T12:04:59.005Z,1020.68
2018-09-09T12:06:08.854Z,1020.69
2018-09-09T12:07:18.776Z,1020.73
2018-09-09T12:08:28.745Z,1020.66
2018-09-09T12:09:38.594Z,1020.75
2018-09-09T12:10:48.738Z,1020.72
2018-09-09T12:11:58.315Z,1020.71
2018-09-09T12:13:07.897Z,1020.71
2018-09-09T12:14:17.747Z,1020.68
2018-09-09T12:15:27.337Z,1020.75
2018-09-09T12:16:36.913Z,1020.67
2018-09-09T12:17:46.781Z,1020.72
2018-09-09T12:18:56.365Z,1020.67
2018-09-09T12:20:05.943Z,1020.64
2018-09-09T12:21:15.793Z,1020.72
2018-09-09T12:22:25.374Z,1020.71
2018-09-09T12:23:35.033Z,1020.68
2018-09-09T12:24:44.768Z,1020.69
2018-09-09T12:25:54.615Z,1020.69
2018-09-09T12:27:04.191Z,1020.66
2018-09-09T12:28:14.043Z,1020.69
2018-09-09T12:29:23.080Z,1020.69
2018-09-09T12:30:33.196Z,1020.64
2018-09-09T12:31:43.317Z,1020.75
2018-09-09T12:32:53.168Z,1020.66
2018-09-09T12:34:02.746Z,1020.68
2018-09-09T12:35:12.647Z,1020.66
2018-09-09T12:36:22.769Z,1020.65
2018-09-09T12:37:32.616Z,1020.64
2018-09-09T12:38:42.624Z,1020.67
2018-09-09T12:39:52.201Z,1020.62
2018-09-09T12:41:01.778Z,1020.64
2018-09-09T12:42:11.627Z,1020.63
2018-09-09T12:43:21.743Z,1020.66
2018-09-09T12:44:31.317Z,1020.69
2018-09-09T12:45:40.904Z,1020.67
2018-09-09T12:46:50.766Z,1020.7
2018-09-09T12:48:00.676Z,1020.67
2018-09-09T12:49:10.309Z,1020.74
2018-09-09T12:50:20.161Z,1020.76
2018-09-09T12:51:29.464Z,1020.69
2018-09-09T12:52:39.594Z,1020.69
2018-09-09T12:53:49.725Z,1020.73
2018-09-09T12:54:59.622Z,1020.74
2018-09-09T12:56:09.477Z,1020.67
2018-09-09T12:57:19.595Z,1020.65
2018-09-09T12:58:28.901Z,1020.61
2018-09-09T12:59:38.219Z,1020.63
2018-09-09T13:00:47.254Z,1020.67
2018-09-09T13:01:57.381Z,1020.61
2018-09-09T13:03:07.006Z,1020.63
2018-09-09T13:04:16.313Z,1020.64
2018-09-09T13:05:26.437Z,1020.64
2018-09-09T13:06:36.565Z,1020.61
2018-09-09T13:07:45.875Z,1020.63
2018-09-09T13:08:55.486Z,1020.62
2018-09-09T13:10:05.600Z,1020.64
2018-09-09T13:11:15.675Z,1020.68
2018-09-09T13:12:25.262Z,1020.7
2018-09-09T13:13:35.577Z,1020.69
2018-09-09T13:14:45.421Z,1020.72
2018-09-09T13:15:55.269Z,1020.71
2018-09-09T13:17:05.113Z,1020.76
2018-09-09T13:18:15.235Z,1020.67
2018-09-09T13:19:24.822Z,1020.71
2018-09-09T13:20:34.397Z,1020.7
2018-09-09T13:21:44.517Z,1020.75
2018-09-09T13:22:54.362Z,1020.67
2018-09-09T13:24:03.939Z,1020.69
2018-09-09T13:25:13.815Z,1020.7
2018-09-09T13:26:23.680Z,1020.7
2018-09-09T13:27:33.826Z,1020.71
2018-09-09T13:28:43.694Z,1020.69
2018-09-09T13:29:53.578Z,1020.71
2018-09-09T13:31:03.712Z,1020.72
2018-09-09T13:32:13.839Z,1020.72
2018-09-09T13:33:23.424Z,1020.72
2018-09-09T13:34:33.010Z,1020.75
2018-09-09T13:35:43.125Z,1020.73
2018-09-09T13:36:52.709Z,1020.71
2018-09-09T13:38:02.831Z,1020.67
2018-09-09T13:39:12.676Z,1020.62
2018-09-09T13:40:22.790Z,1020.69
2018-09-09T13:41:32.641Z,1020.77
2018-09-09T13:42:42.535Z,1020.66
2018-09-09T13:43:52.672Z,1020.65
2018-09-09T13:45:02.525Z,1020.66
2018-09-09T13:46:12.388Z,1020.7
2018-09-09T13:47:22.236Z,1020.69
2018-09-09T13:48:32.396Z,1020.65
2018-09-09T13:49:42.352Z,1020.66
2018-09-09T13:50:51.925Z,1020.69
2018-09-09T13:52:01.510Z,1020.65
2018-09-09T13:53:11.146Z,1020.64
2018-09-09T13:54:20.999Z,1020.66
2018-09-09T13:55:30.579Z,1020.65
2018-09-09T13:56:40.712Z,1020.66
2018-09-09T13:57:50.031Z,1020.66
2018-09-09T13:58:59.338Z,1020.63
2018-09-09T14:00:09.462Z,1020.61
2018-09-09T14:01:19.052Z,1020.59
2018-09-09T14:02:28.904Z,1020.63
2018-09-09T14:03:38.211Z,1020.6
2018-09-09T14:04:48.202Z,1020.59
2018-09-09T14:05:58.361Z,1020.57
2018-09-09T14:07:08.212Z,1020.55